createdAt,value
2019-02-25T00:07:57.028Z,98620.92
2019-02-25T00:09:05.487Z,98621.37
2019-02-25T00:10:14.661Z,98621.35
2019-02-25T00:11:21.947Z,98621.75
2019-02-25T00:12:29.275Z,98619.98
2019-02-25T00:13:36.638Z,98617.41
2019-02-25T00:14:43.847Z,98620.39
2019-02-25T00:15:51.158Z,98618.67
2019-02-25T00:16:58.469Z,98616.52
2019-02-25T00:18:05.782Z,98618.23
2019-02-25T00:19:13.153Z,98619.08
2019-02-25T00:20:20.458Z,98621.23
2019-02-25T00:21:27.770Z,98619.52
2019-02-25T00:22:35.100Z,98618.67
2019-02-25T00:23:42.415Z,98619.53
2019-02-25T00:24:49.720Z,98616.97
2019-02-25T00:25:57.032Z,98625.95
2019-02-25T00:27:04.349Z,98628.52
2019-02-25T00:28:11.671Z,98624.69
2019-02-25T00:29:19.012Z,98623.83
2019-02-25T00:30:26.300Z,98628.97
2019-02-25T00:31:33.607Z,98628.11
2019-02-25T00:32:40.853Z,98626.83
2019-02-25T00:33:48.183Z,98627.27
2019-02-25T00:34:55.436Z,98631.11
2019-02-25T00:36:02.773Z,98632.02
2019-02-25T00:37:10.102Z,98631.59
2019-02-25T00:38:17.429Z,98627.31
2019-02-25T00:39:24.732Z,98631.59
2019-02-25T00:40:35.780Z,98619.20
2019-02-25T00:41:43.367Z,98623.92
2019-02-25T00:42:50.668Z,98619.23
2019-02-25T00:43:57.986Z,98617.53
2019-02-25T00:45:05.793Z,98618.83
2019-02-25T00:46:13.169Z,98617.98
2019-02-25T00:47:23.563Z,98624.40
2019-02-25T00:48:30.907Z,98623.55
2019-02-25T00:49:38.223Z,98623.13
2019-02-25T00:50:45.492Z,98621.43
2019-02-25T00:51:52.779Z,98628.28
2019-02-25T00:53:00.140Z,98631.69
2019-02-25T00:54:07.455Z,98636.39
2019-02-25T00:55:15.818Z,98635.97
2019-02-25T00:56:23.058Z,98639.39
2019-02-25T00:57:30.349Z,98637.27
2019-02-25T00:58:37.686Z,98640.69
2019-02-25T00:59:46.358Z,98643.30
2019-02-25T01:00:53.688Z,98647.15
2019-02-25T01:02:01.063Z,98653.13
2019-02-25T01:03:08.304Z,98640.31
2019-02-25T01:04:15.633Z,98646.25
2019-02-25T01:05:23.039Z,98651.86
2019-02-25T01:06:30.341Z,98649.73
2019-02-25T01:07:37.566Z,98651.86
2019-02-25T01:08:44.891Z,98652.30
2019-02-25T01:09:52.226Z,98656.58
2019-02-25T01:10:59.555Z,98657.01
2019-02-25T01:12:07.247Z,98654.02
2019-02-25T01:13:14.535Z,98652.74
2019-02-25T01:14:21.838Z,98654.91
2019-02-25T01:15:29.137Z,98648.49
2019-02-25T01:16:36.464Z,98646.38
2019-02-25T01:17:43.768Z,98648.09
2019-02-25T01:18:52.160Z,98646.80
2019-02-25T01:19:59.482Z,98652.80
2019-02-25T01:21:06.780Z,98649.81
2019-02-25T01:22:14.118Z,98648.97
2019-02-25T01:23:21.424Z,98644.73
2019-02-25T01:24:28.724Z,98645.59
2019-02-25T01:25:36.041Z,98644.31
2019-02-25T01:26:43.356Z,98647.31
2019-02-25T01:27:50.687Z,98641.77
2019-02-25T01:28:57.989Z,98646.48
2019-02-25T01:30:06.935Z,98642.22
2019-02-25T01:31:14.238Z,98649.05
2019-02-25T01:32:21.557Z,98647.35
2019-02-25T01:33:28.890Z,98651.64
2019-02-25T01:34:36.225Z,98655.06
2019-02-25T01:35:44.000Z,98652.52
2019-02-25T01:36:51.327Z,98654.23
2019-02-25T01:37:58.637Z,98658.09
2019-02-25T01:39:09.017Z,98659.37
2019-02-25T01:40:16.425Z,98652.16
2019-02-25T01:41:23.752Z,98651.75
2019-02-25T01:42:31.008Z,98654.30
2019-02-25T01:43:38.357Z,98656.00
2019-02-25T01:44:45.670Z,98655.60
2019-02-25T01:45:53.004Z,98658.61
2019-02-25T01:47:00.335Z,98652.26
2019-02-25T01:48:07.721Z,98650.14
2019-02-25T01:49:14.981Z,98652.70
2019-02-25T01:50:22.313Z,98652.71
2019-02-25T01:51:29.638Z,98647.18
2019-02-25T01:52:36.971Z,98647.61
2019-02-25T01:53:44.224Z,98646.33
2019-02-25T01:54:51.542Z,98644.20
2019-02-25T01:55:59.860Z,98645.92
2019-02-25T01:57:07.222Z,98643.38
2019-02-25T01:58:14.462Z,98649.78
2019-02-25T01:59:21.807Z,98654.48
2019-02-25T02:00:29.111Z,98650.26
2019-02-25T02:01:36.442Z,98654.11
2019-02-25T02:02:43.800Z,98648.98
2019-02-25T02:03:51.056Z,98651.98
2019-02-25T02:04:58.385Z,98646.44
2019-02-25T02:06:05.701Z,98653.70
2019-02-25T02:07:13.002Z,98650.29
2019-02-25T02:08:20.333Z,98655.00
2019-02-25T02:09:27.618Z,98657.57
2019-02-25T02:10:34.968Z,98650.31
2019-02-25T02:11:42.278Z,98652.89
2019-02-25T02:12:49.611Z,98654.59
2019-02-25T02:13:56.924Z,98649.53
2019-02-25T02:15:04.690Z,98658.08
2019-02-25T02:16:11.948Z,98661.50
2019-02-25T02:17:19.277Z,98660.23
2019-02-25T02:18:26.582Z,98660.24
2019-02-25T02:19:33.928Z,98653.42
2019-02-25T02:20:41.274Z,98653.86
2019-02-25T02:21:48.593Z,98652.58
2019-02-25T02:22:55.858Z,98645.77
2019-02-25T02:24:03.107Z,98651.75
2019-02-25T02:25:11.367Z,98647.95
2019-02-25T02:26:18.690Z,98650.08
2019-02-25T02:27:25.929Z,98658.63
2019-02-25T02:28:33.228Z,98652.66
2019-02-25T02:29:40.544Z,98656.49
2019-02-25T02:30:47.863Z,98654.80
2019-02-25T02:31:56.198Z,98653.09
2019-02-25T02:33:03.557Z,98656.09
2019-02-25T02:34:10.874Z,98660.78
2019-02-25T02:35:18.198Z,98653.97
2019-02-25T02:36:25.533Z,98650.14
2019-02-25T02:37:32.834Z,98644.17
2019-02-25T02:38:40.180Z,98637.81
2019-02-25T02:39:47.470Z,98636.97
2019-02-25T02:40:54.781Z,98639.11
2019-02-25T02:42:18.174Z,98636.55
2019-02-25T02:43:25.526Z,98627.59
2019-02-25T02:44:32.810Z,98634.88
2019-02-25T02:45:52.878Z,98626.78
2019-02-25T02:47:43.162Z,98635.75
2019-02-25T02:48:58.974Z,98635.80
2019-02-25T02:50:09.391Z,98629.84
2019-02-25T02:51:17.694Z,98634.53
2019-02-25T02:52:24.984Z,98627.70
2019-02-25T02:53:32.312Z,98632.81
2019-02-25T02:54:39.601Z,98630.20
2019-02-25T02:55:46.886Z,98626.36
2019-02-25T02:56:54.242Z,98635.32
2019-02-25T02:58:01.578Z,98625.08
2019-02-25T02:59:08.877Z,98626.78
2019-02-25T03:00:18.696Z,98623.80
2019-02-25T03:01:26.027Z,98625.92
2019-02-25T03:02:33.313Z,98622.09
2019-02-25T03:03:40.641Z,98622.52
2019-02-25T03:04:47.942Z,98624.22
2019-02-25T03:05:55.233Z,98620.81
2019-02-25T03:07:03.055Z,98622.56
2019-02-25T03:08:10.337Z,98625.12
2019-02-25T03:09:17.656Z,98630.25
2019-02-25T03:10:24.955Z,98628.98
2019-02-25T03:11:33.469Z,98624.70
2019-02-25T03:12:40.771Z,98623.44
2019-02-25T03:13:48.072Z,98622.58
2019-02-25T03:14:55.371Z,98623.44
2019-02-25T03:16:02.683Z,98624.30
2019-02-25T03:17:10.004Z,98626.02
2019-02-25T03:18:17.351Z,98625.59
2019-02-25T03:19:24.753Z,98621.77
2019-02-25T03:20:32.179Z,98623.04
2019-02-25T03:21:39.520Z,98620.48
2019-02-25T03:22:46.837Z,98622.63
2019-02-25T03:23:54.178Z,98622.20
2019-02-25T03:25:01.512Z,98621.34
2019-02-25T03:26:08.894Z,98620.06
2019-02-25T03:27:16.209Z,98620.11
2019-02-25T03:28:23.508Z,98616.27
2019-02-25T03:29:30.840Z,98615.42
2019-02-25T03:30:38.183Z,98615.42
2019-02-25T03:31:45.499Z,98612.44
2019-02-25T03:32:52.920Z,98616.28
2019-02-25T03:34:00.235Z,98618.84
2019-02-25T03:35:07.595Z,98617.12
2019-02-25T03:36:14.942Z,98624.81
2019-02-25T03:37:22.241Z,98620.12
2019-02-25T03:38:29.581Z,98617.56
2019-02-25T03:39:36.920Z,98613.73
2019-02-25T03:40:44.222Z,98614.16
2019-02-25T03:41:51.535Z,98613.30
2019-02-25T03:42:58.803Z,98614.58
2019-02-25T03:44:06.119Z,98618.00
2019-02-25T03:45:15.555Z,98608.19
2019-02-25T03:46:22.806Z,98605.20
2019-02-25T03:47:30.208Z,98607.33
2019-02-25T03:48:37.497Z,98604.35
2019-02-25T03:49:44.662Z,98600.94
2019-02-25T03:50:51.966Z,98606.06
2019-02-25T03:51:59.282Z,98607.77
2019-02-25T03:53:06.643Z,98610.75
2019-02-25T03:54:13.944Z,98608.20
2019-02-25T03:55:21.411Z,98610.77
2019-02-25T03:56:28.633Z,98615.88
2019-02-25T03:57:36.193Z,98617.16
2019-02-25T03:58:43.583Z,98617.59
2019-02-25T03:59:50.908Z,98621.42
2019-02-25T04:00:58.540Z,98621.00
2019-02-25T04:02:05.857Z,98623.56
2019-02-25T04:03:13.188Z,98622.28
2019-02-25T04:04:21.035Z,98622.29
2019-02-25T04:05:28.378Z,98624.43
2019-02-25T04:06:35.716Z,98624.01
2019-02-25T04:07:43.053Z,98627.04
2019-02-25T04:08:50.398Z,98631.73
2019-02-25T04:09:59.404Z,98628.33
2019-02-25T04:11:06.735Z,98634.30
2019-02-25T04:12:14.050Z,98625.35
2019-02-25T04:13:21.336Z,98622.81
2019-02-25T04:14:28.654Z,98616.41
2019-02-25T04:15:39.121Z,98628.36
2019-02-25T04:16:46.479Z,98624.95
2019-02-25T04:17:53.795Z,98623.25
2019-02-25T04:19:01.424Z,98621.55
2019-02-25T04:20:11.696Z,98620.69
2019-02-25T04:21:19.970Z,98621.13
2019-02-25T04:22:27.286Z,98629.23
2019-02-25T04:23:35.712Z,98626.28
2019-02-25T04:24:43.062Z,98629.69
2019-02-25T04:25:50.388Z,98629.70
2019-02-25T04:26:57.750Z,98627.56
2019-02-25T04:28:05.066Z,98633.53
2019-02-25T04:29:12.410Z,98636.09
2019-02-25T04:30:19.754Z,98633.95
2019-02-25T04:31:27.085Z,98630.55
2019-02-25T04:32:36.751Z,98630.98
2019-02-25T04:33:44.096Z,98625.44
2019-02-25T04:34:51.343Z,98635.25
2019-02-25T04:35:58.674Z,98632.69
2019-02-25T04:37:07.083Z,98635.25
2019-02-25T04:38:14.344Z,98628.84
2019-02-25T04:39:21.656Z,98632.27
2019-02-25T04:40:29.009Z,98628.00
2019-02-25T04:41:36.300Z,98633.12
2019-02-25T04:42:44.746Z,98631.84
2019-02-25T04:43:52.025Z,98627.58
2019-02-25T04:44:59.387Z,98628.86
2019-02-25T04:46:06.614Z,98628.86
2019-02-25T04:47:14.903Z,98626.73
2019-02-25T04:48:22.233Z,98629.29
2019-02-25T04:49:32.555Z,98617.35
2019-02-25T04:50:39.889Z,98619.48
2019-02-25T04:51:47.135Z,98625.03
2019-02-25T04:52:54.468Z,98627.59
2019-02-25T04:54:01.766Z,98620.77
2019-02-25T04:55:10.058Z,98622.05
2019-02-25T04:56:17.343Z,98624.19
2019-02-25T04:57:24.568Z,98626.75
2019-02-25T04:58:31.912Z,98629.73
2019-02-25T04:59:39.129Z,98625.48
2019-02-25T05:00:46.464Z,98628.88
2019-02-25T05:01:53.693Z,98625.09
2019-02-25T05:03:01.010Z,98631.91
2019-02-25T05:04:08.340Z,98634.05
2019-02-25T05:05:15.659Z,98631.91
2019-02-25T05:06:22.972Z,98632.34
2019-02-25T05:07:30.305Z,98632.34
2019-02-25T05:08:37.620Z,98640.02
2019-02-25T05:09:44.951Z,98643.01
2019-02-25T05:10:52.291Z,98630.21
2019-02-25T05:11:59.671Z,98638.31
2019-02-25T05:13:07.151Z,98638.31
2019-02-25T05:14:14.527Z,98636.61
2019-02-25T05:15:24.421Z,98640.02
2019-02-25T05:16:31.725Z,98640.02
2019-02-25T05:17:39.051Z,98642.16
2019-02-25T05:18:46.336Z,98640.02
2019-02-25T05:19:53.591Z,98637.47
2019-02-25T05:21:00.912Z,98634.05
2019-02-25T05:22:08.192Z,98631.07
2019-02-25T05:23:15.512Z,98634.05
2019-02-25T05:24:22.854Z,98634.48
2019-02-25T05:25:30.153Z,98634.06
2019-02-25T05:26:37.440Z,98632.78
2019-02-25T05:27:44.755Z,98631.50
2019-02-25T05:28:52.012Z,98628.52
2019-02-25T05:30:11.860Z,98628.95
2019-02-25T05:31:19.121Z,98631.51
2019-02-25T05:32:26.429Z,98629.39
2019-02-25T05:33:33.764Z,98627.69
2019-02-25T05:34:41.094Z,98627.69
2019-02-25T05:35:52.655Z,98620.02
2019-02-25T05:36:59.054Z,98620.44
2019-02-25T05:38:06.335Z,98617.46
2019-02-25T05:39:13.687Z,98617.46
2019-02-25T05:40:21.061Z,98614.08
2019-02-25T05:41:28.402Z,98611.48
2019-02-25T05:42:35.681Z,98614.47
2019-02-25T05:43:42.978Z,98619.16
2019-02-25T05:44:50.282Z,98618.73
2019-02-25T05:45:57.627Z,98617.45
2019-02-25T05:47:04.912Z,98621.29
2019-02-25T05:48:14.287Z,98625.12
2019-02-25T05:49:21.600Z,98621.29
2019-02-25T05:50:28.837Z,98620.02
2019-02-25T05:51:36.155Z,98618.73
2019-02-25T05:52:43.429Z,98619.16
2019-02-25T05:53:50.670Z,98617.02
2019-02-25T05:54:57.968Z,98618.73
2019-02-25T05:56:05.298Z,98617.88
2019-02-25T05:57:12.638Z,98620.02
2019-02-25T05:58:19.943Z,98622.57
2019-02-25T05:59:27.274Z,98619.16
2019-02-25T06:00:34.972Z,98619.59
2019-02-25T06:01:42.328Z,98615.75
2019-02-25T06:02:49.659Z,98614.05
2019-02-25T06:03:56.888Z,98612.34
2019-02-25T06:05:04.422Z,98612.38
2019-02-25T06:06:13.253Z,98608.13
2019-02-25T06:07:20.556Z,98607.27
2019-02-25T06:08:27.933Z,98606.00
2019-02-25T06:09:35.231Z,98604.72
2019-02-25T06:10:42.598Z,98599.59
2019-02-25T06:11:49.913Z,98601.31
2019-02-25T06:12:57.167Z,98602.58
2019-02-25T06:14:05.051Z,98597.47
2019-02-25T06:15:13.825Z,98599.17
2019-02-25T06:16:21.152Z,98605.14
2019-02-25T06:17:28.498Z,98616.22
2019-02-25T06:18:35.917Z,98619.21
2019-02-25T06:19:43.248Z,98619.21
2019-02-25T06:20:50.625Z,98622.20
2019-02-25T06:21:57.945Z,98627.31
2019-02-25T06:23:06.291Z,98619.64
2019-02-25T06:24:13.603Z,98623.05
2019-02-25T06:25:20.940Z,98617.51
2019-02-25T06:26:28.273Z,98625.61
2019-02-25T06:27:35.602Z,98632.00
2019-02-25T06:28:43.005Z,98632.44
2019-02-25T06:29:50.352Z,98629.45
2019-02-25T06:30:57.671Z,98624.77
2019-02-25T06:32:04.974Z,98617.94
2019-02-25T06:33:13.955Z,98618.80
2019-02-25T06:34:21.285Z,98620.50
2019-02-25T06:35:28.581Z,98621.78
2019-02-25T06:36:35.900Z,98618.38
2019-02-25T06:37:43.173Z,98618.80
2019-02-25T06:38:50.565Z,98622.20
2019-02-25T06:39:57.941Z,98619.65
2019-02-25T06:41:05.285Z,98623.48
2019-02-25T06:42:12.599Z,98627.32
2019-02-25T06:43:22.927Z,98625.61
2019-02-25T06:44:30.232Z,98630.30
2019-02-25T06:45:37.589Z,98632.01
2019-02-25T06:46:44.808Z,98634.14
2019-02-25T06:47:52.163Z,98634.14
2019-02-25T06:48:59.494Z,98634.14
2019-02-25T06:50:07.920Z,98629.88
2019-02-25T06:51:15.222Z,98629.03
2019-02-25T06:52:24.936Z,98631.16
2019-02-25T06:53:32.521Z,98629.45
2019-02-25T06:54:39.867Z,98632.44
2019-02-25T06:55:47.153Z,98631.16
2019-02-25T06:57:04.328Z,98627.33
2019-02-25T06:58:11.641Z,98630.30
2019-02-25T06:59:43.802Z,98624.78
2019-02-25T07:00:51.117Z,98628.19
2019-02-25T07:02:12.671Z,98626.55
2019-02-25T07:03:19.973Z,98627.41
2019-02-25T07:04:58.568Z,98628.69
2019-02-25T07:06:18.891Z,98626.98
2019-02-25T07:07:45.169Z,98632.14
2019-02-25T07:09:08.554Z,98627.03
2019-02-25T07:12:10.324Z,98619.78
2019-02-25T07:13:28.667Z,98627.03
2019-02-25T07:14:51.032Z,98630.45
2019-02-25T07:16:09.234Z,98634.70
2019-02-25T07:17:28.735Z,98633.42
2019-02-25T07:18:54.971Z,98627.41
2019-02-25T07:20:23.571Z,98626.12
2019-02-25T07:23:53.413Z,98635.07
2019-02-25T07:26:50.843Z,98637.73
2019-02-25T07:28:25.663Z,98637.75
2019-02-25T07:29:52.936Z,98631.78
2019-02-25T07:32:56.126Z,98633.06
2019-02-25T07:34:28.437Z,98642.44
2019-02-25T07:35:47.287Z,98645.42
2019-02-25T07:39:10.892Z,98650.95
2019-02-25T07:40:49.373Z,98651.81
2019-02-25T07:42:23.679Z,98650.95
2019-02-25T07:43:43.460Z,98647.55
2019-02-25T07:45:06.692Z,98652.66
2019-02-25T07:46:25.966Z,98653.93
2019-02-25T07:47:50.989Z,98653.03
2019-02-25T07:49:23.298Z,98660.70
2019-02-25T07:50:54.515Z,98661.55
2019-02-25T07:52:09.807Z,98661.13
2019-02-25T07:53:34.979Z,98662.78
2019-02-25T07:55:10.109Z,98664.05
2019-02-25T07:56:27.180Z,98669.55
2019-02-25T07:57:52.361Z,98664.42
2019-02-25T07:59:15.107Z,98665.27
2019-02-25T08:00:41.388Z,98665.27
2019-02-25T08:01:56.989Z,98660.57
2019-02-25T08:03:29.327Z,98669.05
2019-02-25T08:04:47.478Z,98669.45
2019-02-25T08:06:16.836Z,98672.39
2019-02-25T08:07:55.169Z,98671.09
2019-02-25T08:09:24.385Z,98672.36
2019-02-25T08:10:38.024Z,98675.34
2019-02-25T08:12:03.116Z,98675.72
2019-02-25T08:13:18.175Z,98678.25
2019-02-25T08:14:37.550Z,98671.42
2019-02-25T08:16:06.589Z,98681.61
2019-02-25T08:17:22.716Z,98676.91
2019-02-25T08:18:38.477Z,98675.61
2019-02-25T08:20:08.508Z,98672.56
2019-02-25T08:21:22.420Z,98673.81
2019-02-25T08:22:42.506Z,98674.20
2019-02-25T08:23:58.389Z,98678.42
2019-02-25T08:25:33.025Z,98673.27
2019-02-25T08:26:48.904Z,98672.77
2019-02-25T08:28:06.931Z,98674.45
2019-02-25T08:29:28.950Z,98666.69
2019-02-25T08:30:55.169Z,98667.06
2019-02-25T08:32:22.309Z,98662.71
2019-02-25T08:33:48.495Z,98669.91
2019-02-25T08:35:13.429Z,98666.84
2019-02-25T08:37:27.789Z,98668.45
2019-02-25T08:38:57.168Z,98664.14
2019-02-25T08:41:19.826Z,98658.15
2019-02-25T08:42:52.228Z,98662.36
2019-02-25T08:44:16.931Z,98656.36
2019-02-25T08:45:35.229Z,98657.58
2019-02-25T08:48:27.102Z,98664.21
2019-02-25T08:49:37.820Z,98668.85
2019-02-25T08:50:45.110Z,98661.02
2019-02-25T08:51:53.384Z,98664.78
2019-02-25T08:53:01.705Z,98666.78
2019-02-25T08:54:09.005Z,98667.08
2019-02-25T08:55:16.341Z,98663.52
2019-02-25T08:56:23.627Z,98665.16
2019-02-25T08:57:31.917Z,98664.59
2019-02-25T08:58:39.200Z,98660.64
2019-02-25T08:59:46.518Z,98661.39
2019-02-25T09:00:53.791Z,98660.02
2019-02-25T09:02:01.104Z,98656.05
2019-02-25T09:03:08.489Z,98649.98
2019-02-25T09:04:15.797Z,98656.72
2019-02-25T09:05:23.066Z,98658.34
2019-02-25T09:06:30.384Z,98657.80
2019-02-25T09:07:37.692Z,98656.89
2019-02-25T09:08:44.975Z,98665.38
2019-02-25T09:09:52.290Z,98667.00
2019-02-25T09:10:59.604Z,98663.52
2019-02-25T09:12:06.968Z,98672.45
2019-02-25T09:13:17.900Z,98668.48
2019-02-25T09:14:28.251Z,98664.97
2019-02-25T09:15:35.582Z,98667.44
2019-02-25T09:16:42.940Z,98666.09
2019-02-25T09:17:47.764Z,98665.11
2019-02-25T09:18:54.991Z,98660.74
2019-02-25T09:20:03.913Z,98667.48
2019-02-25T09:21:11.253Z,98671.64
2019-02-25T09:22:18.632Z,98670.72
2019-02-25T09:23:25.960Z,98673.16
2019-02-25T09:24:33.250Z,98668.37
2019-02-25T09:25:40.553Z,98664.80
2019-02-25T09:26:47.873Z,98659.98
2019-02-25T09:27:55.214Z,98665.41
2019-02-25T09:29:02.563Z,98659.73
2019-02-25T09:30:14.671Z,98658.27
2019-02-25T09:31:22.038Z,98663.30
2019-02-25T09:32:29.382Z,98663.12
2019-02-25T09:33:36.773Z,98661.72
2019-02-25T09:34:44.194Z,98661.53
2019-02-25T09:35:51.497Z,98663.55
2019-02-25T09:36:58.831Z,98665.09
2019-02-25T09:38:06.174Z,98663.67
2019-02-25T09:39:16.674Z,98666.94
2019-02-25T09:40:23.674Z,98664.20
2019-02-25T09:41:31.009Z,98656.31
2019-02-25T09:42:38.330Z,98664.32
2019-02-25T09:43:45.666Z,98655.98
2019-02-25T09:44:53.002Z,98660.15
2019-02-25T09:46:00.309Z,98662.12
2019-02-25T09:47:07.632Z,98663.61
2019-02-25T09:48:14.856Z,98658.72
2019-02-25T09:49:22.170Z,98658.95
2019-02-25T09:50:29.441Z,98659.17
2019-02-25T09:51:36.741Z,98660.24
2019-02-25T09:52:44.059Z,98656.19
2019-02-25T09:53:51.386Z,98659.03
2019-02-25T09:54:58.688Z,98656.27
2019-02-25T09:56:05.988Z,98659.13
2019-02-25T09:57:13.303Z,98656.77
2019-02-25T09:58:20.624Z,98658.34
2019-02-25T09:59:27.871Z,98655.12
2019-02-25T10:00:35.396Z,98654.13
2019-02-25T10:01:42.705Z,98656.06
2019-02-25T10:02:51.094Z,98655.06
2019-02-25T10:03:58.404Z,98653.20
2019-02-25T10:05:06.387Z,98646.18
2019-02-25T10:06:13.786Z,98646.45
2019-02-25T10:07:21.128Z,98648.52
2019-02-25T10:08:28.429Z,98652.63
2019-02-25T10:09:35.759Z,98655.94
2019-02-25T10:10:43.063Z,98654.15
2019-02-25T10:11:50.377Z,98656.12
2019-02-25T10:12:57.696Z,98652.12
2019-02-25T10:14:04.993Z,98649.81
2019-02-25T10:15:14.157Z,98651.42
2019-02-25T10:16:21.548Z,98652.14
2019-02-25T10:17:28.878Z,98653.62
2019-02-25T10:18:36.372Z,98646.97
2019-02-25T10:19:43.719Z,98648.05
2019-02-25T10:20:51.065Z,98648.27
2019-02-25T10:21:58.336Z,98648.50
2019-02-25T10:23:06.734Z,98644.83
2019-02-25T10:24:14.155Z,98651.92
2019-02-25T10:25:21.486Z,98652.19
2019-02-25T10:26:28.810Z,98658.83
2019-02-25T10:27:36.135Z,98655.20
2019-02-25T10:28:43.522Z,98656.22
2019-02-25T10:29:50.868Z,98648.27
2019-02-25T10:30:58.187Z,98645.00
2019-02-25T10:32:06.556Z,98645.19
2019-02-25T10:33:14.093Z,98643.66
2019-02-25T10:34:21.410Z,98645.16
2019-02-25T10:35:28.782Z,98646.20
2019-02-25T10:36:36.093Z,98645.06
2019-02-25T10:37:43.848Z,98644.45
2019-02-25T10:38:51.230Z,98645.59
2019-02-25T10:39:58.541Z,98640.62
2019-02-25T10:41:05.920Z,98643.84
2019-02-25T10:42:13.236Z,98641.84
2019-02-25T10:43:20.568Z,98638.64
2019-02-25T10:44:29.437Z,98640.53
2019-02-25T10:45:38.921Z,98643.30
2019-02-25T10:46:47.024Z,98637.42
2019-02-25T10:47:58.419Z,98640.19
2019-02-25T10:49:11.120Z,98639.48
2019-02-25T10:50:13.721Z,98636.66
2019-02-25T10:51:21.069Z,98634.70
2019-02-25T10:52:28.393Z,98630.98
2019-02-25T10:53:35.694Z,98627.22
2019-02-25T10:54:43.001Z,98629.97
2019-02-25T10:56:07.343Z,98628.38
2019-02-25T10:57:21.975Z,98631.50
2019-02-25T10:58:31.152Z,98626.97
2019-02-25T10:59:41.424Z,98629.69
2019-02-25T11:00:48.245Z,98632.10
2019-02-25T11:01:55.536Z,98630.98
2019-02-25T11:03:02.898Z,98631.64
2019-02-25T11:04:10.211Z,98628.80
2019-02-25T11:05:19.007Z,98631.06
2019-02-25T11:06:27.398Z,98632.53
2019-02-25T11:07:37.402Z,98639.63
2019-02-25T11:08:48.387Z,98639.04
2019-02-25T11:10:14.004Z,98637.00
2019-02-25T11:11:27.192Z,98638.50
2019-02-25T11:12:34.699Z,98633.63
2019-02-25T11:13:42.034Z,98636.85
2019-02-25T11:14:49.365Z,98626.14
2019-02-25T11:15:56.674Z,98632.24
2019-02-25T11:17:04.383Z,98630.52
2019-02-25T11:18:11.710Z,98626.65
2019-02-25T11:19:19.045Z,98626.31
2019-02-25T11:20:27.332Z,98628.48
2019-02-25T11:21:37.523Z,98628.59
2019-02-25T11:22:46.191Z,98627.38
2019-02-25T11:23:54.655Z,98628.37
2019-02-25T11:25:02.001Z,98626.73
2019-02-25T11:26:09.554Z,98625.44
2019-02-25T11:27:16.920Z,98628.53
2019-02-25T11:28:26.077Z,98623.78
2019-02-25T11:29:33.255Z,98627.30
2019-02-25T11:30:40.591Z,98623.98
2019-02-25T11:31:49.510Z,98623.20
2019-02-25T11:32:59.490Z,98628.59
2019-02-25T11:34:08.005Z,98623.05
2019-02-25T11:35:16.335Z,98624.98
2019-02-25T11:36:23.683Z,98623.84
2019-02-25T11:37:30.983Z,98625.28
2019-02-25T11:38:38.402Z,98621.99
2019-02-25T11:39:45.736Z,98621.59
2019-02-25T11:40:53.032Z,98616.99
2019-02-25T11:42:00.804Z,98617.12
2019-02-25T11:43:10.128Z,98610.30
2019-02-25T11:44:18.863Z,98612.57
2019-02-25T11:45:27.237Z,98608.05
2019-02-25T11:46:34.732Z,98603.34
2019-02-25T11:47:45.571Z,98604.33
2019-02-25T11:48:52.929Z,98606.47
2019-02-25T11:50:00.350Z,98601.70
2019-02-25T11:51:07.638Z,98602.89
2019-02-25T11:52:14.956Z,98598.08
2019-02-25T11:53:22.181Z,98599.25
2019-02-25T11:54:29.511Z,98601.38
2019-02-25T11:55:36.980Z,98598.25
2019-02-25T11:56:44.260Z,98599.57
2019-02-25T11:57:51.579Z,98593.64
2019-02-25T11:58:58.896Z,98600.77
2019-02-25T12:00:18.212Z,98595.17
2019-02-25T12:01:25.741Z,98597.02
2019-02-25T12:02:33.054Z,98588.91
2019-02-25T12:03:40.446Z,98592.86
2019-02-25T12:04:48.486Z,98587.94
2019-02-25T12:05:55.977Z,98586.55
2019-02-25T12:07:03.410Z,98584.90
2019-02-25T12:08:10.726Z,98582.66
2019-02-25T12:09:18.057Z,98581.39
2019-02-25T12:10:25.653Z,98578.77
2019-02-25T12:11:32.989Z,98584.95
2019-02-25T12:12:40.331Z,98581.02
2019-02-25T12:13:47.639Z,98580.92
2019-02-25T12:14:55.059Z,98581.91
2019-02-25T12:16:04.464Z,98585.81
2019-02-25T12:17:12.940Z,98586.76
2019-02-25T12:18:21.510Z,98577.67
2019-02-25T12:19:29.857Z,98581.23
2019-02-25T12:20:38.342Z,98576.91
2019-02-25T12:21:47.125Z,98576.08
2019-02-25T12:22:55.611Z,98575.77
2019-02-25T12:24:04.182Z,98571.10
2019-02-25T12:25:14.116Z,98575.22
2019-02-25T12:26:22.442Z,98577.15
2019-02-25T12:27:32.899Z,98572.94
2019-02-25T12:28:41.213Z,98566.67
2019-02-25T12:29:49.631Z,98562.94
2019-02-25T12:30:58.175Z,98565.61
2019-02-25T12:32:06.692Z,98561.77
2019-02-25T12:33:15.116Z,98554.91
2019-02-25T12:34:23.553Z,98561.86
2019-02-25T12:35:31.712Z,98562.75
2019-02-25T12:36:40.315Z,98565.45
2019-02-25T12:37:49.066Z,98564.19
2019-02-25T12:38:57.687Z,98563.53
2019-02-25T12:40:06.781Z,98554.63
2019-02-25T12:41:15.315Z,98562.67
2019-02-25T12:42:23.843Z,98559.26
2019-02-25T12:43:32.191Z,98555.88
2019-02-25T12:44:40.577Z,98554.14
2019-02-25T12:45:49.142Z,98558.98
2019-02-25T12:46:57.371Z,98552.57
2019-02-25T12:48:05.843Z,98548.44
2019-02-25T12:49:14.257Z,98543.57
2019-02-25T12:50:22.664Z,98544.14
2019-02-25T12:51:31.130Z,98548.77
2019-02-25T12:52:39.691Z,98539.23
2019-02-25T12:53:48.152Z,98543.16
2019-02-25T12:54:56.627Z,98537.82
2019-02-25T12:56:05.135Z,98536.28
2019-02-25T12:57:13.826Z,98534.30
2019-02-25T12:58:22.381Z,98525.66
2019-02-25T12:59:30.625Z,98529.46
2019-02-25T13:00:38.876Z,98529.73
2019-02-25T13:01:47.253Z,98522.61
2019-02-25T13:02:55.542Z,98527.38
2019-02-25T13:04:03.996Z,98521.87
2019-02-25T13:05:14.688Z,98520.19
2019-02-25T13:06:24.061Z,98519.81
2019-02-25T13:07:32.443Z,98520.89
2019-02-25T13:08:40.885Z,98517.53
2019-02-25T13:09:49.144Z,98517.90
2019-02-25T13:10:57.453Z,98515.55
2019-02-25T13:12:05.592Z,98511.38
2019-02-25T13:13:13.850Z,98504.16
2019-02-25T13:14:25.569Z,98505.39
2019-02-25T13:15:33.887Z,98508.28
2019-02-25T13:16:42.150Z,98506.97
2019-02-25T13:17:50.562Z,98503.98
2019-02-25T13:18:59.046Z,98498.27
2019-02-25T13:20:07.995Z,98497.33
2019-02-25T13:21:16.433Z,98493.39
2019-02-25T13:22:24.684Z,98494.94
2019-02-25T13:23:34.500Z,98486.87
2019-02-25T13:24:43.665Z,98492.75
2019-02-25T13:25:52.046Z,98486.36
2019-02-25T13:27:01.025Z,98486.38
2019-02-25T13:28:10.861Z,98476.63
2019-02-25T13:29:19.046Z,98475.00
2019-02-25T13:30:27.533Z,98478.12
2019-02-25T13:31:35.743Z,98475.08
2019-02-25T13:32:46.104Z,98471.16
2019-02-25T13:33:54.486Z,98470.73
2019-02-25T13:35:02.828Z,98465.66
2019-02-25T13:36:14.989Z,98467.02
2019-02-25T13:37:23.355Z,98473.48
2019-02-25T13:38:34.948Z,98467.11
2019-02-25T13:39:43.481Z,98466.39
2019-02-25T13:40:51.904Z,98463.18
2019-02-25T13:42:00.361Z,98467.73
2019-02-25T13:43:08.786Z,98469.78
2019-02-25T13:44:17.009Z,98466.21
2019-02-25T13:45:25.450Z,98467.05
2019-02-25T13:46:33.974Z,98461.80
2019-02-25T13:47:42.434Z,98462.27
2019-02-25T13:48:50.780Z,98454.03
2019-02-25T13:49:58.961Z,98451.52
2019-02-25T13:51:07.309Z,98453.30
2019-02-25T13:52:15.624Z,98446.73
2019-02-25T13:53:25.016Z,98446.63
2019-02-25T13:54:33.170Z,98443.16
2019-02-25T13:55:41.609Z,98438.28
2019-02-25T13:56:52.950Z,98439.01